Archival Weather

Yakutsk

Yakutsk, Russia (UEEE)

Report from: Tuesday, June 6, 2023 10:30 PM JST
Current time: Thursday, May 30, 2024 9:55 AM JST

Current weather – Weather history – Daily summaries
Weather forecast

Temperature14.0°C (57.2°F)
Dew point5.0°C (41.0°F)
Winds 5.8 kts (3 m/s, 6.7 mph) North (350°)
Clouds Sky clear
Altimeter29.65 in.Hg (1004 mB)
Precip. events QF 12:24 AM
Relative humidity55 %
Density altitude324 ft. (99 m)
Remarks Ceiling and visibility OK
No significant changes expected in the next two hours
Flight conditions Visual Meteorological Conditions
Raw dataUEEE 061330Z 35003MPS CAVOK 14/05 Q1004 R05/09//60 NOSIG RMK QFE744
An error has occurred. This application may no longer respond until reloaded. Reload 🗙